Time;durP1;ratioP1;P1;durP2;ratioP2;P2;SDS_P1;SDS_P2;PMS_P1;PMS_P2;Temp;Humidity;BMP_temperature;BMP_pressure;BME280_temperature;BME280_humidity;BME280_pressure;Samples;Min_cycle;Max_cycle;Signal;HPM_P1;HPM_P2
2022/11/19 00:01:05;;;;;;;;;3.00;2.33;;;;;21.96;54.42;100846.72;5036609;28;45418;-78
2022/11/19 00:03:33;;;;;;;;;1.67;1.67;;;;;21.89;54.32;100843.94;5035476;28;45286;-75
2022/11/19 00:06:08;;;;;;;;;2.00;2.00;;;;;21.95;53.15;100850.34;5036105;28;45404;-78
2022/11/19 00:08:34;;;;;;;;;3.67;1.67;;;;;22.02;53.77;100861.03;5036290;28;45419;-76
2022/11/19 00:11:08;;;;;;;;;2.00;2.00;;;;;22.00;53.76;100857.75;5035782;28;46329;-77
2022/11/19 00:13:33;;;;;;;;;3.00;2.00;;;;;21.74;53.92;100825.34;5035842;28;45611;-77
2022/11/19 00:16:01;;;;;;;;;5.00;2.00;;;;;21.93;53.82;100858.50;5035500;28;45447;-76
2022/11/19 00:18:26;;;;;;;;;2.00;2.00;;;;;21.95;53.87;100864.41;5035450;28;45386;-75
2022/11/19 00:20:53;;;;;;;;;5.00;2.00;;;;;21.83;53.45;100847.28;5035267;28;45506;-78
2022/11/19 00:23:18;;;;;;;;;3.67;3.67;;;;;21.89;54.03;100854.53;5035218;28;45477;-79
2022/11/19 00:25:43;;;;;;;;;5.67;2.33;;;;;21.79;53.30;100838.88;5036472;28;45291;-80
2022/11/19 00:28:09;;;;;;;;;5.00;4.00;;;;;21.59;53.18;100806.75;5035393;28;45407;-78
2022/11/19 00:30:34;;;;;;;;;2.33;2.33;;;;;21.89;53.57;100866.94;5035928;28;51293;-78
2022/11/19 00:32:59;;;;;;;;;1.00;1.00;;;;;21.66;53.53;100833.34;5035656;28;45336;-77
2022/11/19 00:35:25;;;;;;;;;2.33;2.33;;;;;21.87;53.78;100871.56;5035787;28;45385;-77
2022/11/19 00:37:50;;;;;;;;;3.00;1.67;;;;;21.65;53.45;100839.66;5035799;28;45365;-79
2022/11/19 00:40:15;;;;;;;;;4.00;3.00;;;;;21.84;53.19;100870.94;5017392;28;46143;-80
2022/11/19 00:43:45;;;;;;;;;2.67;2.67;;;;;21.80;53.22;100872.31;5035554;28;45466;-79
2022/11/19 00:45:26;;;;;;;;;4.00;2.00;;;;;21.39;53.76;100816.00;5034925;28;45330;-79
2022/11/19 00:47:51;;;;;;;;;2.33;2.33;;;;;21.82;53.51;100872.94;5035068;28;45343;-78
2022/11/19 00:50:16;;;;;;;;;6.33;2.33;;;;;21.81;53.13;100878.41;5034860;28;55091;-77
2022/11/19 00:52:42;;;;;;;;;1.00;1.00;;;;;21.69;53.09;100872.72;5034878;28;45422;-78
2022/11/19 00:55:08;;;;;;;;;2.33;2.00;;;;;21.68;53.34;100882.47;5034834;28;50114;-78
2022/11/19 00:57:33;;;;;;;;;3.00;3.00;;;;;21.73;53.15;100893.34;5035344;28;45418;-77
2022/11/19 00:59:58;;;;;;;;;4.00;2.00;;;;;21.73;53.16;100895.19;5034528;28;45979;-77
2022/11/19 01:02:23;;;;;;;;;4.00;4.00;;;;;21.62;53.10;100875.25;5035348;28;45347;-79
2022/11/19 01:04:49;;;;;;;;;2.33;1.33;;;;;21.68;53.62;100877.19;5026495;28;45370;-76
2022/11/19 01:07:14;;;;;;;;;4.00;2.33;;;;;21.73;53.85;100858.94;5030176;28;45437;-76
2022/11/19 01:09:39;;;;;;;;;1.33;1.33;;;;;21.77;53.28;100861.22;5035403;28;46378;-76
2022/11/19 01:12:05;;;;;;;;;2.00;0.00;;;;;21.71;53.41;100855.66;5034664;28;45454;-76
2022/11/19 01:14:30;;;;;;;;;4.33;2.00;;;;;21.77;53.58;100863.88;5034431;28;45378;-76
2022/11/19 01:16:56;;;;;;;;;2.00;2.00;;;;;21.79;53.86;100862.69;5035075;28;45336;-76
2022/11/19 01:19:21;;;;;;;;;4.67;4.00;;;;;21.82;53.59;100874.75;5034723;28;45410;-77
2022/11/19 01:21:46;;;;;;;;;2.33;2.00;;;;;21.73;52.99;100866.88;5034740;28;45320;-76
2022/11/19 01:24:12;;;;;;;;;5.67;1.00;;;;;21.67;53.27;100857.00;5034626;28;45378;-80
2022/11/19 01:26:37;;;;;;;;;2.00;2.00;;;;;21.82;53.35;100875.59;5035082;28;45783;-76
2022/11/19 01:29:02;;;;;;;;;2.00;2.00;;;;;21.82;53.38;100896.78;5016588;28;47508;-76
2022/11/19 01:31:29;;;;;;;;;3.00;1.67;;;;;21.61;52.95;100871.78;5034899;28;45528;-76
2022/11/19 01:33:55;;;;;;;;;6.00;2.33;;;;;21.51;53.18;100847.34;5036677;28;46127;-76
2022/11/19 01:36:24;;;;;;;;;1.00;1.00;;;;;21.76;52.74;100881.59;5038433;28;45352;-75
2022/11/19 01:38:49;;;;;;;;;3.67;1.33;;;;;21.74;53.55;100888.88;5037987;28;46125;-75
2022/11/19 01:41:16;;;;;;;;;3.67;1.00;;;;;21.58;53.32;100864.19;5037920;28;45418;-75
2022/11/19 01:43:45;;;;;;;;;3.33;2.00;;;;;21.72;52.79;100886.44;5038060;28;45575;-76
2022/11/19 01:46:13;;;;;;;;;4.00;1.67;;;;;21.72;52.88;100888.25;5037990;28;45459;-75
2022/11/19 01:48:41;;;;;;;;;4.00;1.00;;;;;;;;5037623;28;46423;-75
2022/11/19 01:51:16;;;;;;;;;3.00;1.00;;;;;21.55;52.91;100861.88;5037863;28;45293;-75
2022/11/19 01:53:44;;;;;;;;;1.67;1.00;;;;;21.53;52.62;100861.25;5037776;28;45449;-76
2022/11/19 01:56:10;;;;;;;;;3.00;2.00;;;;;21.56;52.64;100868.84;5037662;28;45354;-75
2022/11/19 01:58:40;;;;;;;;;1.00;1.00;;;;;21.58;52.72;100877.41;5036998;28;46004;-75
2022/11/19 02:01:08;;;;;;;;;2.00;2.00;;;;;21.68;52.98;100893.06;5020174;28;45796;-76
2022/11/19 02:03:35;;;;;;;;;2.00;1.67;;;;;21.46;52.71;100860.31;5037688;28;45384;-75
2022/11/19 02:06:02;;;;;;;;;2.33;2.00;;;;;21.55;52.89;100887.53;5035418;28;45491;-75
2022/11/19 02:08:49;;;;;;;;;1.67;1.67;;;;;21.56;52.73;100883.88;5037766;28;46776;-76
2022/11/19 02:11:33;;;;;;;;;2.00;2.00;;;;;21.67;52.90;100901.19;5037261;28;45296;-75
2022/11/19 02:14:01;;;;;;;;;4.00;2.00;;;;;21.66;52.80;100895.06;5037272;28;45355;-76
2022/11/19 02:16:50;;;;;;;;;1.67;1.67;;;;;21.58;52.54;100889.81;5037879;28;45434;-76
2022/11/19 02:19:43;;;;;;;;;3.00;2.00;;;;;21.64;52.34;100907.66;5037456;28;47782;-76
2022/11/19 02:22:28;;;;;;;;;1.00;1.00;;;;;21.63;52.32;100901.53;5037068;28;45384;-75
2022/11/19 02:25:02;;;;;;;;;1.67;1.67;;;;;21.51;52.64;100895.00;5037687;28;45339;-77
2022/11/19 02:27:28;;;;;;;;;2.00;2.00;;;;;21.61;52.41;100906.19;5041870;28;45385;-75
2022/11/19 02:30:28;;;;;;;;;3.00;2.00;;;;;21.61;52.76;100908.84;5036924;28;46176;-75
2022/11/19 02:33:05;;;;;;;;;3.00;2.00;;;;;21.55;52.55;100901.59;5017696;28;45477;-75
2022/11/19 02:35:57;;;;;;;;;3.00;2.00;;;;;21.38;52.44;100888.47;5027126;28;45315;-76
2022/11/19 02:38:36;;;;;;;;;1.67;1.00;;;;;21.61;52.13;100921.25;5037156;28;45776;-75
2022/11/19 02:41:32;;;;;;;;;3.00;3.00;;;;;21.56;52.58;100919.13;5037178;28;47498;-76
2022/11/19 02:46:47;;;;;;;;;1.00;1.00;;;;;21.56;52.41;100913.00;5036788;28;45346;-76
2022/11/19 02:49:16;;;;;;;;;2.00;2.00;;;;;21.60;51.88;100919.59;5042190;28;45357;-75
2022/11/19 02:51:42;;;;;;;;;0.00;0.00;;;;;21.60;52.42;100927.53;5040075;28;46119;-75
2022/11/19 02:54:07;;;;;;;;;1.00;1.00;;;;;21.46;51.83;100903.47;5036886;28;45429;-76
2022/11/19 02:56:51;;;;;;;;;4.67;2.00;;;;;21.60;52.34;100909.00;5036651;28;45496;-75
2022/11/19 03:05:07;;;;;;;;;2.00;2.00;;;;;21.41;52.03;100889.94;5034471;28;45648;-75
2022/11/19 03:07:33;;;;;;;;;4.33;2.00;;;;;21.55;52.24;100911.34;5036950;28;45401;-76
2022/11/19 03:10:03;;;;;;;;;1.67;1.67;;;;;21.48;51.76;100903.28;5036722;28;45446;-76
2022/11/19 03:12:52;;;;;;;;;4.00;2.00;;;;;21.58;52.09;100916.31;5036106;28;46867;-75
2022/11/19 03:18:35;;;;;;;;;4.00;1.67;;;;;21.58;52.07;100919.78;5036383;28;45309;-76
2022/11/19 03:21:06;;;;;;;;;2.00;1.33;;;;;21.60;51.70;100923.06;5036341;28;45295;-74
2022/11/19 03:23:38;;;;;;;;;3.33;2.33;;;;;21.59;52.11;100920.59;5036236;28;47225;-76
2022/11/19 03:26:18;;;;;;;;;2.00;2.00;;;;;21.55;51.89;100919.28;5036130;28;45364;-75
2022/11/19 03:28:46;;;;;;;;;1.00;1.00;;;;;21.59;51.60;100920.59;5036546;28;45463;-76
2022/11/19 03:31:16;;;;;;;;;2.00;1.00;;;;;21.59;51.56;100917.97;5036491;28;45429;-75
2022/11/19 03:33:46;;;;;;;;;1.33;1.33;;;;;21.59;51.56;100920.59;5027669;28;46150;-76
2022/11/19 03:36:18;;;;;;;;;1.00;1.00;;;;;21.13;51.82;100848.91;5031602;28;45679;-76
2022/11/19 03:38:50;;;;;;;;;1.33;1.33;;;;;21.40;51.78;100896.22;5036439;28;45444;-77
2022/11/19 03:41:19;;;;;;;;;2.67;2.67;;;;;21.60;51.44;100924.88;5015329;28;45434;-76
2022/11/19 03:43:50;;;;;;;;;3.00;3.00;;;;;21.49;51.62;100903.09;5036727;28;45443;-77
2022/11/19 03:46:19;;;;;;;;;1.67;1.00;;;;;21.49;51.75;100912.91;5036112;28;45414;-77
2022/11/19 03:48:49;;;;;;;;;2.33;2.00;;;;;21.51;51.30;100914.38;5036246;28;45489;-77
2022/11/19 03:51:49;;;;;;;;;0.67;0.33;;;;;21.60;51.48;100927.53;5036086;28;45529;-76
2022/11/19 03:54:15;;;;;;;;;2.00;2.00;;;;;21.30;51.20;100899.09;5035589;28;46405;-75
2022/11/19 03:56:43;;;;;;;;;2.00;2.00;;;;;21.56;51.67;100934.19;5039273;28;46027;-76
2022/11/19 03:59:10;;;;;;;;;2.00;1.00;;;;;21.46;51.59;100911.44;5036110;28;45542;-75
2022/11/19 04:01:35;;;;;;;;;2.00;2.00;;;;;;;;5030543;28;45371;-77
2022/11/19 04:06:45;;;;;;;;;3.33;1.00;;;;;21.54;51.66;100926.44;5026949;28;45358;-75
2022/11/19 04:09:10;;;;;;;;;2.00;2.00;;;;;21.59;51.23;100934.69;5035675;28;45351;-76
2022/11/19 04:11:36;;;;;;;;;1.00;1.00;;;;;21.55;51.04;100925.41;5035954;28;45489;-76
2022/11/19 04:14:01;;;;;;;;;3.00;2.00;;;;;21.49;51.11;100926.94;5036963;28;47249;-75
2022/11/19 04:16:26;;;;;;;;;1.00;1.00;;;;;21.59;51.48;100942.63;5035876;28;48590;-76
2022/11/19 04:18:52;;;;;;;;;0.33;0.33;;;;;21.36;51.27;100921.41;5035686;28;45568;-74
2022/11/19 04:21:17;;;;;;;;;2.00;2.00;;;;;21.40;51.20;100928.00;5035899;28;45328;-76
2022/11/19 04:23:42;;;;;;;;;3.00;3.00;;;;;21.60;51.40;100964.59;5035119;28;45470;-75
2022/11/19 04:26:07;;;;;;;;;1.33;1.00;;;;;21.44;51.15;100934.59;5017700;28;45453;-76
2022/11/19 04:28:33;;;;;;;;;3.00;1.00;;;;;21.52;51.25;100950.41;5035739;28;45477;-76
2022/11/19 04:30:58;;;;;;;;;2.00;2.00;;;;;21.27;51.58;100913.50;5035762;28;45354;-75
2022/11/19 04:33:23;;;;;;;;;2.00;1.00;;;;;21.20;51.11;100906.44;5035522;28;45583;-75
2022/11/19 04:35:49;;;;;;;;;1.00;1.00;;;;;21.59;51.15;100961.16;5035737;28;45333;-75
2022/11/19 04:38:14;;;;;;;;;3.33;2.00;;;;;21.34;51.36;100921.56;5035007;28;45345;-76
2022/11/19 04:40:40;;;;;;;;;0.00;0.00;;;;;21.60;50.89;100965.44;5035482;28;45549;-76
2022/11/19 04:43:06;;;;;;;;;2.67;1.33;;;;;21.60;50.96;100959.31;5035212;28;46349;-76
2022/11/19 04:45:31;;;;;;;;;3.00;2.00;;;;;21.60;50.81;100960.13;5035416;28;45358;-75
2022/11/19 04:47:56;;;;;;;;;3.67;2.00;;;;;21.58;50.96;100953.38;5035820;28;45434;-75
2022/11/19 04:50:22;;;;;;;;;2.67;1.00;;;;;21.51;50.81;100943.50;5035499;28;45506;-74
2022/11/19 04:52:47;;;;;;;;;1.67;1.67;;;;;21.56;51.10;100953.56;5034581;28;46184;-76
2022/11/19 04:55:12;;;;;;;;;2.00;2.00;;;;;21.56;50.86;100950.91;5035331;28;45287;-76
2022/11/19 04:57:38;;;;;;;;;1.00;1.00;;;;;21.58;50.49;100961.31;5035418;28;45344;-75
2022/11/19 05:00:04;;;;;;;;;0.67;0.67;;;;;21.38;50.81;100916.75;5034751;28;45551;-76
2022/11/19 05:02:30;;;;;;;;;1.00;1.00;;;;;21.61;50.68;100958.31;5035065;28;46546;-76
2022/11/19 05:04:55;;;;;;;;;1.00;1.00;;;;;21.55;51.07;100949.25;5032594;28;45503;-76
2022/11/19 05:07:20;;;;;;;;;2.00;2.00;;;;;21.61;50.74;100958.31;5016782;28;45476;-76
2022/11/19 05:09:46;;;;;;;;;3.00;2.00;;;;;21.61;51.08;100960.97;5034892;28;45465;-74
2022/11/19 05:12:11;;;;;;;;;2.00;2.00;;;;;21.60;51.05;100959.31;5035174;28;45363;-74
2022/11/19 05:14:37;;;;;;;;;1.33;1.33;;;;;21.50;50.60;100947.13;5034772;28;50616;-76
2022/11/19 05:17:03;;;;;;;;;2.00;2.00;;;;;21.52;50.49;100954.88;5035050;28;45414;-75
2022/11/19 05:19:28;;;;;;;;;2.00;1.00;;;;;21.44;50.78;100941.72;5034539;28;45358;-75
2022/11/19 05:21:53;;;;;;;;;1.33;0.67;;;;;21.54;50.75;100968.78;5034544;28;45562;-76
2022/11/19 05:24:19;;;;;;;;;2.00;2.00;;;;;21.62;50.70;100960.78;5034695;28;45477;-76
2022/11/19 05:26:45;;;;;;;;;1.00;1.00;;;;;21.31;50.86;100923.75;5035397;28;45430;-76
2022/11/19 05:29:10;;;;;;;;;2.00;2.00;;;;;21.63;50.32;100974.84;5035225;28;45371;-76
2022/11/19 05:31:35;;;;;;;;;1.00;1.00;;;;;21.62;50.36;100963.44;5034912;28;46700;-75
2022/11/19 05:34:01;;;;;;;;;1.00;1.00;;;;;21.57;50.85;100951.75;5034477;28;45541;-76
2022/11/19 05:36:26;;;;;;;;;2.00;2.00;;;;;21.62;50.32;100968.72;5034441;28;45419;-76
2022/11/19 05:38:51;;;;;;;;;4.00;1.00;;;;;21.58;50.12;100971.91;5034686;28;45520;-76
2022/11/19 05:41:17;;;;;;;;;2.00;2.00;;;;;21.39;50.69;100935.09;5034595;28;46076;-73
2022/11/19 05:43:42;;;;;;;;;2.67;1.33;;;;;21.54;50.41;100955.56;5034564;28;48563;-76
2022/11/19 05:46:07;;;;;;;;;1.33;1.33;;;;;21.56;50.71;100968.59;5034741;28;45385;-75
2022/11/19 05:48:32;;;;;;;;;2.00;0.00;;;;;21.44;50.23;100953.13;5041589;28;45290;-76
2022/11/19 05:50:58;;;;;;;;;5.00;2.00;;;;;21.54;50.09;100962.66;5034352;28;45644;-75
2022/11/19 05:53:23;;;;;;;;;2.00;2.00;;;;;21.50;50.30;100959.53;5034216;28;45350;-76
2022/11/19 05:55:48;;;;;;;;;1.33;1.33;;;;;21.44;50.25;100953.13;5034587;28;45391;-76
2022/11/19 05:58:14;;;;;;;;;1.00;1.00;;;;;21.59;50.73;100970.91;5038168;28;45415;-77
2022/11/19 06:00:39;;;;;;;;;1.00;1.00;;;;;20.47;50.09;100794.47;5034761;28;45512;-76
2022/11/19 06:03:05;;;;;;;;;4.33;1.00;;;;;21.54;50.15;100971.44;5034719;28;45342;-76
2022/11/19 06:05:30;;;;;;;;;3.00;1.00;;;;;21.14;50.44;100922.00;5031742;28;45396;-76
2022/11/19 06:07:56;;;;;;;;;2.00;1.00;;;;;21.55;50.05;100970.41;5034830;28;45379;-73
2022/11/19 06:10:21;;;;;;;;;1.00;1.00;;;;;21.57;50.16;100973.72;5034180;28;47590;-76
2022/11/19 06:12:46;;;;;;;;;3.00;3.00;;;;;21.64;49.89;101005.63;5033947;28;45354;-76
2022/11/19 06:15:12;;;;;;;;;2.33;1.67;;;;;21.50;50.33;100972.78;5034620;28;46603;-75
2022/11/19 06:17:38;;;;;;;;;1.00;1.00;;;;;21.28;50.34;100928.41;5034289;28;45431;-76
2022/11/19 06:20:03;;;;;;;;;1.00;1.00;;;;;21.20;49.92;100931.06;5036654;28;47499;-75
2022/11/19 06:22:29;;;;;;;;;2.00;2.00;;;;;21.63;50.42;100996.88;5037604;28;45439;-76
2022/11/19 06:24:54;;;;;;;;;1.00;1.00;;;;;21.59;50.25;100992.94;5009098;28;45334;-76
2022/11/19 06:27:19;;;;;;;;;0.33;0.00;;;;;21.43;50.01;100983.22;5030167;28;45288;-76
2022/11/19 06:29:45;;;;;;;;;2.33;2.00;;;;;21.24;50.03;100956.19;5037241;28;46127;-76
2022/11/19 06:32:10;;;;;;;;;2.67;1.00;;;;;21.55;49.97;101001.38;5037657;28;45397;-73
2022/11/19 06:34:35;;;;;;;;;2.00;1.00;;;;;21.54;49.98;100997.09;5037106;28;45379;-76
2022/11/19 06:37:01;;;;;;;;;2.00;0.67;;;;;21.59;49.97;101006.16;5037441;28;45393;-76
2022/11/19 06:39:26;;;;;;;;;2.33;1.33;;;;;21.62;50.24;101018.22;5037279;28;46166;-77
2022/11/19 06:41:52;;;;;;;;;3.00;0.67;;;;;21.54;49.88;100999.72;5015955;28;45272;-76
2022/11/19 06:44:17;;;;;;;;;2.00;2.00;;;;;21.45;50.38;100991.81;5028910;28;45466;-76
2022/11/19 06:46:42;;;;;;;;;0.67;0.67;;;;;21.44;50.08;100986.72;5037000;28;45493;-76
2022/11/19 06:49:08;;;;;;;;;1.00;1.00;;;;;21.64;50.20;101026.81;5036556;28;47171;-76
2022/11/19 06:51:34;;;;;;;;;1.00;1.00;;;;;21.37;49.97;100986.56;5036901;28;45400;-76
2022/11/19 06:53:59;;;;;;;;;3.00;1.33;;;;;21.54;50.18;101024.38;5036966;28;45940;-75
2022/11/19 06:56:25;;;;;;;;;1.67;1.67;;;;;21.58;49.86;101030.97;5037113;28;45692;-76
2022/11/19 06:58:50;;;;;;;;;1.00;1.00;;;;;21.57;50.23;101036.47;5036801;28;46117;-75
2022/11/19 07:01:15;;;;;;;;;1.67;1.00;;;;;21.11;50.31;100980.53;5036912;28;45497;-77
2022/11/19 07:03:41;;;;;;;;;3.00;0.67;;;;;21.31;49.75;101003.97;5036870;28;45410;-75
2022/11/19 07:06:06;;;;;;;;;1.00;1.00;;;;;21.65;50.36;101049.63;5023236;28;45535;-76
2022/11/19 07:08:34;;;;;;;;;1.00;1.00;;;;;21.64;49.97;101058.59;5036835;28;45366;-77
2022/11/19 07:11:24;;;;;;;;;3.00;1.00;;;;;21.63;49.75;101065.72;5037006;28;45434;-76
2022/11/19 07:13:58;;;;;;;;;2.00;2.00;;;;;21.65;49.63;101070.81;5036939;28;45372;-73
2022/11/19 07:16:29;;;;;;;;;1.00;1.00;;;;;21.66;49.76;101076.94;5036621;28;45397;-76
2022/11/19 07:18:56;;;;;;;;;1.33;1.33;;;;;21.54;49.75;101063.28;5036112;28;45438;-76
2022/11/19 07:21:22;;;;;;;;;1.00;1.00;;;;;21.47;49.61;101045.41;5036571;28;45394;-77
2022/11/19 07:23:47;;;;;;;;;1.67;1.67;;;;;21.55;49.68;101062.25;5036620;28;45486;-77
2022/11/19 07:26:13;;;;;;;;;3.00;2.00;;;;;21.60;49.80;101073.16;5036646;28;45455;-76
2022/11/19 07:28:38;;;;;;;;;2.67;2.00;;;;;21.66;49.72;101071.66;5036782;28;46082;-77
2022/11/19 07:31:05;;;;;;;;;1.33;1.33;;;;;21.65;49.73;101081.41;5035983;28;45357;-75
2022/11/19 07:33:31;;;;;;;;;3.00;2.00;;;;;21.58;49.47;101069.84;5036181;28;45514;-77
2022/11/19 07:35:57;;;;;;;;;2.00;2.00;;;;;21.66;50.01;101083.06;5036530;28;45407;-76
2022/11/19 07:38:22;;;;;;;;;2.00;1.00;;;;;21.23;49.45;101020.72;5030726;28;47356;-75
2022/11/19 07:40:52;;;;;;;;;1.00;1.00;;;;;21.36;50.12;101041.34;5036387;28;45283;-76
2022/11/19 07:43:17;;;;;;;;;2.33;1.00;;;;;21.57;49.83;101071.69;5036303;28;45306;-76
2022/11/19 07:45:43;;;;;;;;;1.67;1.67;;;;;21.58;49.95;101073.34;5036362;28;45496;-76
2022/11/19 07:48:08;;;;;;;;;1.00;1.00;;;;;21.50;49.60;101068.91;5035443;28;46641;-73
2022/11/19 07:50:33;;;;;;;;;2.00;2.00;;;;;21.62;49.44;101092.38;5036411;28;45605;-77
2022/11/19 07:52:59;;;;;;;;;3.00;2.00;;;;;21.67;49.46;101097.97;5018162;28;45541;-76
2022/11/19 07:55:24;;;;;;;;;1.33;1.00;;;;;21.52;49.66;101074.84;5036072;28;45461;-75
2022/11/19 07:57:52;;;;;;;;;1.00;1.00;;;;;21.57;50.01;101084.13;5039633;28;45366;-75
2022/11/19 08:00:17;;;;;;;;;2.67;1.00;;;;;21.67;49.89;101103.28;5036043;28;45402;-76
2022/11/19 08:02:43;;;;;;;;;4.00;1.00;;;;;21.67;49.98;101113.88;5035892;28;45306;-76
2022/11/19 08:05:08;;;;;;;;;1.33;1.33;;;;;21.30;49.39;101052.59;5033393;28;45381;-76
2022/11/19 08:07:36;;;;;;;;;2.00;2.00;;;;;21.67;49.51;101116.50;5035872;28;46325;-76
2022/11/19 08:10:05;;;;;;;;;1.33;1.33;;;;;21.67;49.84;101113.03;5036232;28;45387;-77
2022/11/19 08:12:30;;;;;;;;;3.00;2.00;;;;;21.28;49.67;101060.72;5035676;28;46427;-77
2022/11/19 08:14:56;;;;;;;;;2.67;2.67;;;;;21.61;49.48;101119.84;5035794;28;45507;-77
2022/11/19 08:18:21;;;;;;;;;1.67;1.00;;;;;21.57;49.42;101102.66;5035748;28;47020;-77
2022/11/19 08:20:16;;;;;;;;;2.00;2.00;;;;;21.58;49.51;101115.69;5028571;28;45573;-76
2022/11/19 08:22:42;;;;;;;;;3.33;2.00;;;;;21.62;49.77;101118.84;5035609;28;45430;-76
2022/11/19 08:25:07;;;;;;;;;2.00;2.00;;;;;21.25;49.69;101068.16;5035603;28;45449;-76
2022/11/19 08:27:33;;;;;;;;;2.00;2.00;;;;;21.66;49.74;101138.69;5035802;28;46447;-76
2022/11/19 08:29:59;;;;;;;;;2.00;2.00;;;;;21.57;49.34;101121.19;5031350;28;45592;-76
2022/11/19 08:32:24;;;;;;;;;2.00;2.00;;;;;21.67;49.79;101137.69;5035818;28;45499;-76
2022/11/19 08:34:49;;;;;;;;;1.00;1.00;;;;;21.62;49.40;101132.09;5035641;28;45557;-76
2022/11/19 08:37:15;;;;;;;;;3.33;1.33;;;;;21.59;49.85;101135.06;5035401;28;47419;-75
2022/11/19 08:39:40;;;;;;;;;2.33;1.00;;;;;21.68;49.42;101135.84;5035581;28;45477;-76
2022/11/19 08:44:53;;;;;;;;;1.00;1.00;;;;;21.68;49.86;101151.75;5035053;28;45401;-77
2022/11/19 08:47:18;;;;;;;;;3.00;2.00;;;;;21.55;49.62;101129.28;5035391;28;46212;-76
2022/11/19 08:49:43;;;;;;;;;2.33;2.33;;;;;21.66;49.44;101159.03;5034908;28;45306;-76
2022/11/19 08:52:09;;;;;;;;;2.33;1.00;;;;;21.63;49.68;101147.78;5035265;28;45660;-77
2022/11/19 08:54:34;;;;;;;;;1.67;1.67;;;;;21.62;49.14;101148.78;5035174;28;45441;-75
2022/11/19 08:56:59;;;;;;;;;1.00;1.00;;;;;21.49;49.88;101133.41;5035094;28;45405;-76
2022/11/19 08:59:25;;;;;;;;;2.00;2.00;;;;;21.55;49.86;101131.91;5034833;28;45368;-76
2022/11/19 09:01:50;;;;;;;;;1.33;1.33;;;;;21.70;49.22;101169.13;5035151;28;45283;-76
2022/11/19 09:04:16;;;;;;;;;4.00;2.33;;;;;21.71;49.67;101178.72;5033199;28;45481;-76
2022/11/19 09:06:41;;;;;;;;;2.33;1.33;;;;;21.54;49.55;101140.03;5023773;28;46416;-76
2022/11/19 09:09:07;;;;;;;;;2.67;1.00;;;;;21.67;49.34;101152.75;5031215;28;45350;-76
2022/11/19 09:11:34;;;;;;;;;1.00;1.00;;;;;21.69;49.54;101156.06;5035256;28;45529;-76
2022/11/19 09:13:59;;;;;;;;;1.00;1.00;;;;;21.72;49.02;101159.19;5034784;28;45456;-76
2022/11/19 09:16:25;;;;;;;;;1.00;1.00;;;;;21.73;49.08;101158.19;5034750;28;46237;-73
2022/11/19 09:18:50;;;;;;;;;3.00;2.00;;;;;21.69;49.31;101148.94;5035111;28;45442;-74
2022/11/19 09:21:15;;;;;;;;;2.00;2.00;;;;;21.69;49.31;101156.06;5034660;28;45197;-74
2022/11/19 09:23:41;;;;;;;;;2.00;2.00;;;;;21.66;49.67;101148.44;5035425;28;45470;-76
2022/11/19 09:26:15;;;;;;;;;3.00;1.67;;;;;21.75;49.04;101158.03;5034550;28;45470;-76
2022/11/19 09:28:41;;;;;;;;;1.67;1.33;;;;;21.70;49.35;101155.06;5034796;28;45430;-77
2022/11/19 09:31:09;;;;;;;;;1.00;1.00;;;;;21.70;49.66;101152.41;5033523;28;45301;-74
2022/11/19 09:33:37;;;;;;;;;3.00;3.00;;;;;21.71;49.01;101151.41;5027950;28;45566;-77
2022/11/19 09:36:04;;;;;;;;;3.00;3.00;;;;;21.73;49.53;101162.66;5034926;28;45463;-77
2022/11/19 09:38:30;;;;;;;;;1.33;1.33;;;;;21.71;49.12;101165.47;5033411;28;45764;-77
2022/11/19 09:41:01;;;;;;;;;2.00;2.00;;;;;21.73;49.04;101157.34;5034674;28;45441;-76
2022/11/19 09:43:45;;;;;;;;;1.00;1.00;;;;;21.72;49.91;101158.38;5034369;28;45354;-77
2022/11/19 09:46:32;;;;;;;;;1.33;1.33;;;;;21.72;49.31;101176.91;5034452;28;45407;-77
2022/11/19 09:49:03;;;;;;;;;1.67;1.67;;;;;;;;5034687;28;45551;-77
2022/11/19 09:51:32;;;;;;;;;2.67;1.00;;;;;21.30;49.44;101113.47;5034738;28;45445;-74
2022/11/19 09:54:13;;;;;;;;;3.67;1.67;;;;;21.72;48.94;101190.16;5035189;28;45363;-76
2022/11/19 09:56:42;;;;;;;;;1.00;1.00;;;;;21.45;48.90;101148.00;5036990;28;46494;-76
2022/11/19 09:59:23;;;;;;;;;2.67;2.00;;;;;21.70;49.42;101190.28;5037612;28;45426;-76
2022/11/19 10:01:49;;;;;;;;;0.00;0.00;;;;;21.61;48.98;101178.09;5038109;28;45523;-77
2022/11/19 10:04:20;;;;;;;;;3.67;2.00;;;;;21.68;49.00;101200.25;5035893;28;45394;-77
2022/11/19 10:06:57;;;;;;;;;2.00;1.00;;;;;21.67;48.96;101209.19;5038016;28;45299;-77
2022/11/19 10:09:50;;;;;;;;;1.67;1.00;;;;;21.70;49.06;101205.38;5037793;28;45559;-75
2022/11/19 10:12:24;;;;;;;;;1.67;1.67;;;;;21.71;48.92;101212.31;5037281;28;45335;-78
2022/11/19 10:15:01;;;;;;;;;1.00;1.00;;;;;21.71;49.38;101215.78;5037983;28;45520;-76
2022/11/19 10:17:32;;;;;;;;;1.00;1.00;;;;;21.72;49.05;101225.41;5037596;28;45590;-77
2022/11/19 10:20:26;;;;;;;;;1.00;1.00;;;;;21.73;49.15;101220.91;5037469;28;45623;-76
2022/11/19 10:23:13;;;;;;;;;3.00;2.00;;;;;21.65;48.91;101210.34;5037757;28;45339;-78
2022/11/19 10:25:43;;;;;;;;;3.00;1.00;;;;;21.73;48.19;101224.38;5037546;28;45330;-74
2022/11/19 10:28:13;;;;;;;;;1.00;1.00;;;;;21.76;49.20;101230.34;5037375;28;46685;-79
2022/11/19 10:30:42;;;;;;;;;4.00;1.00;;;;;21.70;49.37;101224.72;5037645;28;45362;-80
2022/11/19 10:33:22;;;;;;;;;2.67;2.67;;;;;21.78;49.36;101225.72;5037840;28;45218;-80
2022/11/19 10:35:58;;;;;;;;;2.00;2.00;;;;;21.31;49.93;101144.25;5038653;28;45455;-79
2022/11/19 10:38:32;;;;;;;;;0.33;0.33;;;;;21.63;49.64;101199.91;5037106;28;46449;-78
2022/11/19 10:41:04;;;;;;;;;5.00;1.67;;;;;21.79;50.00;101217.59;5038263;28;45418;-78
2022/11/19 10:43:49;;;;;;;;;6.67;2.00;;;;;21.79;46.98;101224.72;5038167;28;45441;-81
2022/11/19 10:46:20;;;;;;;;;5.67;4.00;;;;;21.48;47.68;101192.69;5037694;28;45424;-81
2022/11/19 10:48:50;;;;;;;;;2.00;2.00;;;;;21.67;48.29;101217.13;5027359;28;47267;-79
2022/11/19 10:51:36;;;;;;;;;1.00;1.00;;;;;21.67;48.86;101225.09;5037374;28;45438;-79
2022/11/19 10:54:06;;;;;;;;;2.00;2.00;;;;;21.58;48.93;101218.97;5036612;28;45270;-76
2022/11/19 10:56:38;;;;;;;;;2.00;2.00;;;;;21.63;48.79;101207.88;5036768;28;45394;-79
2022/11/19 10:59:12;;;;;;;;;1.67;1.67;;;;;21.63;48.42;101214.00;5036868;28;45476;-78
2022/11/19 11:01:41;;;;;;;;;2.67;2.67;;;;;21.56;48.54;101206.88;5036971;28;45653;-78
2022/11/19 11:04:14;;;;;;;;;2.00;2.00;;;;;21.76;48.94;101225.03;5034223;28;45365;-76
2022/11/19 11:07:02;;;;;;;;;2.33;2.00;;;;;21.76;48.87;101220.56;5026570;28;45255;-77
2022/11/19 11:09:27;;;;;;;;;3.00;3.00;;;;;21.78;48.97;101231.03;5036022;28;46062;-76
2022/11/19 11:14:51;;;;;;;;;2.00;2.00;;;;;21.79;48.54;101219.41;5036835;28;45296;-79
2022/11/19 11:17:20;;;;;;;;;3.33;3.00;;;;;21.79;48.67;101216.75;5030161;28;45427;-74
2022/11/19 11:19:58;;;;;;;;;4.00;2.00;;;;;21.52;48.58;101172.81;5036350;28;48465;-75
2022/11/19 11:22:25;;;;;;;;;3.00;3.00;;;;;21.73;48.14;101203.22;5036813;28;45327;-77
2022/11/19 11:24:51;;;;;;;;;3.67;2.00;;;;;21.73;48.34;101200.56;5036080;28;45331;-76
2022/11/19 11:27:33;;;;;;;;;4.33;3.00;;;;;21.66;47.99;101185.50;5036942;28;45375;-77
2022/11/19 11:30:16;;;;;;;;;2.33;2.33;;;;;21.81;48.03;101205.00;5036417;28;46746;-78
2022/11/19 11:32:42;;;;;;;;;1.67;1.67;;;;;21.60;48.14;101166.66;5036047;28;45413;-75
2022/11/19 11:35:37;;;;;;;;;3.00;2.67;;;;;21.86;48.28;101188.59;5036725;28;45545;-74
2022/11/19 11:38:04;;;;;;;;;5.00;3.00;;;;;21.80;47.54;101166.28;5015054;28;45486;-76
2022/11/19 11:40:30;;;;;;;;;4.33;3.00;;;;;21.66;47.13;101148.44;5035507;28;45482;-78
2022/11/19 11:42:56;;;;;;;;;4.33;3.33;;;;;21.76;47.07;101164.13;5036513;28;45373;-75
2022/11/19 11:45:26;;;;;;;;;2.00;2.00;;;;;21.80;46.75;101166.28;5036551;28;45414;-77
2022/11/19 11:47:52;;;;;;;;;5.00;4.00;;;;;21.85;47.00;101169.25;5036642;28;45487;-77
2022/11/19 11:50:23;;;;;;;;;3.00;3.00;;;;;21.59;46.57;101127.97;5036218;28;45362;-77
2022/11/19 11:52:52;;;;;;;;;3.33;3.33;;;;;21.76;46.26;101141.13;5036180;28;45383;-77
2022/11/19 11:55:23;;;;;;;;;3.00;3.00;;;;;21.88;46.43;101161.97;5036316;28;45260;-77